Time;durP1;ratioP1;P1;durP2;ratioP2;P2;SDS_P1;SDS_P2;PMS_P1;PMS_P2;Temp;Humidity;BMP_temperature;BMP_pressure;BME280_temperature;BME280_humidity;BME280_pressure;Samples;Min_cycle;Max_cycle;Signal;HPM_P1;HPM_P2
2021/11/30 00:01:52;;;;;;;3.67;2.03;;;4.00;38.40;;;;;;5014200;28;20400;-81
2021/11/30 00:04:19;;;;;;;2.70;1.77;;;4.00;38.90;;;;;;5013213;28;20483;-81
2021/11/30 00:06:47;;;;;;;2.40;1.50;;;3.90;40.60;;;;;;5014482;28;20427;-82
2021/11/30 00:12:19;;;;;;;0.90;0.60;;;3.60;41.00;;;;;;5009048;28;20408;-79
2021/11/30 00:14:50;;;;;;;1.33;0.50;;;3.50;41.80;;;;;;5014673;28;20404;-79
2021/11/30 00:17:18;;;;;;;0.88;0.50;;;3.20;44.60;;;;;;5014815;28;20403;-82
2021/11/30 00:19:47;;;;;;;1.00;0.60;;;3.00;44.60;;;;;;5015276;28;21224;-79
2021/11/30 00:22:17;;;;;;;1.13;0.40;;;2.80;45.40;;;;;;5014932;28;20465;-78
2021/11/30 00:24:45;;;;;;;2.28;0.98;;;2.80;43.30;;;;;;5016346;28;20806;-79
2021/11/30 00:27:13;;;;;;;1.50;1.00;;;2.70;45.00;;;;;;5027102;28;20470;-79
2021/11/30 00:29:40;;;;;;;1.70;1.00;;;2.50;44.40;;;;;;5016725;28;20908;-82
2021/11/30 00:32:08;;;;;;;2.63;1.08;;;2.50;43.90;;;;;;5017334;28;20415;-79
2021/11/30 00:34:35;;;;;;;1.95;0.80;;;2.60;43.10;;;;;;5014082;28;20400;-78
2021/11/30 00:37:03;;;;;;;2.77;1.30;;;2.50;44.60;;;;;;5014474;28;20404;-82
2021/11/30 00:39:30;;;;;;;2.80;1.40;;;2.60;44.70;;;;;;5014286;28;20457;-80
2021/11/30 00:41:59;;;;;;;3.08;1.60;;;2.50;45.50;;;;;;5020684;28;20533;-80
2021/11/30 00:44:29;;;;;;;4.38;2.20;;;2.50;46.50;;;;;;5039581;28;20456;-79
2021/11/30 00:46:57;;;;;;;2.80;1.60;;;2.40;46.80;;;;;;5014237;28;20424;-80
2021/11/30 00:49:26;;;;;;;2.58;1.60;;;2.30;47.60;;;;;;5013857;28;20430;-79
2021/11/30 00:51:55;;;;;;;4.05;1.63;;;2.30;47.80;;;;;;5008518;28;20400;-79
2021/11/30 00:54:26;;;;;;;4.68;2.35;;;2.20;47.90;;;;;;5014389;28;20457;-80
2021/11/30 00:56:53;;;;;;;6.03;3.15;;;2.20;48.30;;;;;;5013865;28;20515;-80
2021/11/30 00:59:26;;;;;;;7.05;3.78;;;2.20;48.40;;;;;;5014076;28;20444;-82
2021/11/30 01:01:55;;;;;;;3.53;1.80;;;2.20;48.80;;;;;;5013608;28;20925;-80
2021/11/30 01:04:22;;;;;;;3.13;1.40;;;1.80;48.90;;;;;;5014012;28;20520;-79
2021/11/30 01:06:49;;;;;;;3.10;1.65;;;1.70;49.60;;;;;;5012018;28;20955;-79
2021/11/30 01:09:16;;;;;;;2.97;1.27;;;1.60;50.10;;;;;;5046832;28;20407;-80
2021/11/30 01:11:45;;;;;;;3.50;1.58;;;1.60;50.60;;;;;;5013508;28;20412;-79
2021/11/30 01:14:12;;;;;;;3.92;1.77;;;1.50;50.50;;;;;;5014520;28;20438;-79
2021/11/30 01:16:39;;;;;;;4.95;2.80;;;1.50;50.30;;;;;;5013829;28;20463;-79
2021/11/30 01:19:07;;;;;;;3.05;1.65;;;1.40;51.20;;;;;;5014066;28;20853;-79
2021/11/30 01:21:35;;;;;;;2.53;1.27;;;1.30;53.70;;;;;;5010483;28;20411;-81
2021/11/30 01:24:03;;;;;;;1.88;1.20;;;1.20;53.90;;;;;;5012658;28;20892;-82
2021/11/30 01:26:30;;;;;;;2.63;1.40;;;1.10;54.10;;;;;;5022318;28;20470;-82
2021/11/30 01:28:57;;;;;;;2.78;1.23;;;1.10;54.20;;;;;;5017185;28;20399;-82
2021/11/30 01:31:24;;;;;;;3.17;1.38;;;1.10;54.10;;;;;;5025912;28;20409;-79
2021/11/30 01:33:52;;;;;;;3.45;1.83;;;1.00;54.30;;;;;;5013693;28;20511;-79
2021/11/30 01:36:19;;;;;;;4.25;1.40;;;1.00;53.90;;;;;;5013882;28;20415;-78
2021/11/30 01:38:47;;;;;;;2.75;1.50;;;1.00;53.50;;;;;;5014802;28;20410;-79
2021/11/30 01:41:14;;;;;;;1.85;1.00;;;0.90;54.20;;;;;;5013233;28;20416;-82
2021/11/30 01:43:43;;;;;;;2.53;1.10;;;0.80;52.80;;;;;;5004756;28;20486;-79
2021/11/30 01:51:33;;;;;;;3.10;0.90;;;0.80;53.20;;;;;;5015296;28;20422;-80
2021/11/30 01:54:00;;;;;;;1.92;1.00;;;0.90;51.70;;;;;;5013396;28;20466;-81
2021/11/30 01:56:27;;;;;;;2.13;1.30;;;0.90;51.90;;;;;;5013635;28;20400;-78
2021/11/30 01:58:55;;;;;;;;;;;0.90;52.30;;;;;;5014074;28;20725;-80
2021/11/30 02:01:22;;;;;;;;;;;0.90;51.80;;;;;;5015038;28;19921;-82
2021/11/30 02:03:50;;;;;;;;;;;0.90;52.60;;;;;;4998533;28;19922;-77
2021/11/30 02:06:17;;;;;;;;;;;0.90;52.40;;;;;;5014418;28;19921;-82
2021/11/30 02:08:44;;;;;;;0.30;0.20;;;1.10;49.30;;;;;;5014218;28;19926;-81
2021/11/30 02:11:11;;;;;;;0.40;0.20;;;1.40;45.90;;;;;;5014503;28;20081;-78
2021/11/30 02:13:38;;;;;;;0.70;0.20;;;2.00;42.30;;;;;;5012881;28;20407;-79
2021/11/30 02:16:07;;;;;;;0.20;0.20;;;2.50;42.70;;;;;;5029994;28;20514;-82
2021/11/30 02:18:41;;;;;;;0.50;0.20;;;2.70;42.40;;;;;;5014298;28;20063;-80
2021/11/30 02:21:08;;;;;;;0.20;0.20;;;2.80;42.50;;;;;;5013877;28;20108;-79
2021/11/30 02:26:22;;;;;;;0.35;0.20;;;3.00;40.70;;;;;;5010527;28;20107;-82
2021/11/30 02:28:51;;;;;;;1.23;0.20;;;3.10;40.40;;;;;;5014177;28;20046;-82
2021/11/30 02:31:20;;;;;;;1.08;0.20;;;3.30;40.50;;;;;;5016200;28;20049;-80
2021/11/30 02:33:48;;;;;;;0.30;0.20;;;3.30;39.40;;;;;;5013168;28;20053;-82
2021/11/30 02:36:35;;;;;;;0.85;0.25;;;3.40;40.00;;;;;;5015887;28;20053;-82
2021/11/30 02:39:06;;;;;;;0.63;0.30;;;3.50;38.40;;;;;;5013924;28;20045;-79
2021/11/30 02:41:35;;;;;;;0.30;0.20;;;3.70;38.20;;;;;;5013279;28;20321;-83
2021/11/30 02:44:03;;;;;;;0.28;0.13;;;3.90;37.80;;;;;;5014525;28;20046;-82
2021/11/30 02:46:31;;;;;;;0.20;0.20;;;3.90;37.90;;;;;;5012026;28;21016;-79
2021/11/30 02:48:59;;;;;;;1.90;0.30;;;4.00;37.60;;;;;;5033961;28;20422;-80
2021/11/30 02:51:26;;;;;;;0.22;0.20;;;4.10;37.40;;;;;;5011201;28;20496;-78
2021/11/30 02:53:55;;;;;;;0.93;0.40;;;4.20;37.50;;;;;;5013431;28;20041;-82
2021/11/30 02:56:22;;;;;;;0.30;0.20;;;4.20;37.60;;;;;;5011940;28;20440;-82
2021/11/30 02:58:49;;;;;;;0.43;0.20;;;4.30;36.70;;;;;;4996361;28;20423;-80
2021/11/30 03:01:15;;;;;;;0.30;0.20;;;4.40;37.00;;;;;;5013425;28;20415;-80
2021/11/30 03:03:43;;;;;;;0.70;0.30;;;4.40;36.30;;;;;;5010395;28;20411;-79
2021/11/30 03:06:10;;;;;;;0.30;0.30;;;4.50;36.40;;;;;;5013238;28;20120;-79
2021/11/30 03:08:39;;;;;;;0.20;0.10;;;4.50;35.80;;;;;;5009250;28;20054;-79
2021/11/30 03:11:07;;;;;;;0.80;0.30;;;4.60;36.00;;;;;;5012865;28;20049;-80
2021/11/30 03:13:35;;;;;;;0.50;0.20;;;4.60;36.00;;;;;;5013622;28;20065;-80
2021/11/30 03:16:03;;;;;;;0.32;0.10;;;4.50;35.80;;;;;;4996331;28;20092;-78
2021/11/30 03:18:34;;;;;;;0.20;0.15;;;4.60;36.20;;;;;;5012573;28;20045;-78
2021/11/30 03:21:03;;;;;;;1.88;0.20;;;4.50;36.80;;;;;;5025728;28;20080;-80
2021/11/30 03:23:30;;;;;;;0.10;0.10;;;4.50;36.50;;;;;;5013701;28;20038;-78
2021/11/30 03:25:57;;;;;;;;;;;4.40;38.40;;;;;;5001573;28;20053;-79
2021/11/30 03:28:24;;;;;;;0.20;0.20;;;4.40;38.50;;;;;;5009723;28;20321;-80
2021/11/30 03:31:02;;;;;;;0.40;0.20;;;4.40;37.00;;;;;;5015347;28;20108;-80
2021/11/30 03:36:15;;;;;;;0.35;0.20;;;4.30;36.60;;;;;;5012172;28;20049;-82
2021/11/30 03:38:42;;;;;;;0.55;0.20;;;4.40;36.20;;;;;;5012294;28;20502;-79
2021/11/30 03:41:09;;;;;;;1.10;0.30;;;4.50;36.10;;;;;;5028549;28;20062;-78
2021/11/30 03:43:37;;;;;;;0.57;0.30;;;4.50;36.20;;;;;;5012285;28;20050;-82
2021/11/30 03:46:05;;;;;;;0.20;0.15;;;4.50;36.10;;;;;;5012503;28;20482;-79
2021/11/30 03:48:32;;;;;;;0.60;0.20;;;4.50;35.90;;;;;;5013004;28;20061;-79
2021/11/30 03:50:59;;;;;;;1.42;0.20;;;4.60;35.40;;;;;;5012308;28;20049;-78
2021/11/30 03:53:26;;;;;;;0.32;0.20;;;4.60;35.70;;;;;;5010865;28;20046;-78
2021/11/30 03:55:54;;;;;;;0.38;0.17;;;4.60;36.00;;;;;;5000712;28;20092;-81
2021/11/30 03:58:21;;;;;;;1.33;0.50;;;4.60;36.10;;;;;;4999035;28;20061;-81
2021/11/30 04:00:49;;;;;;;0.40;0.22;;;4.60;36.00;;;;;;5010995;28;20053;-81
2021/11/30 04:03:16;;;;;;;0.20;0.20;;;4.60;36.00;;;;;;5012328;28;20053;-83
2021/11/30 04:05:43;;;;;;;1.40;0.13;;;4.60;36.40;;;;;;5011919;28;20056;-83
2021/11/30 04:08:10;;;;;;;1.05;0.17;;;4.60;36.20;;;;;;5044375;28;20058;-80
2021/11/30 04:10:37;;;;;;;2.85;0.43;;;4.60;36.20;;;;;;5044743;28;20054;-81
2021/11/30 04:13:04;;;;;;;0.40;0.20;;;4.50;36.60;;;;;;5013102;28;20038;-81
2021/11/30 04:15:31;;;;;;;1.08;0.20;;;4.50;36.50;;;;;;5001279;28;20116;-79
2021/11/30 04:17:58;;;;;;;1.10;0.40;;;4.50;36.30;;;;;;5010941;28;20509;-80
2021/11/30 04:20:25;;;;;;;1.20;0.20;;;4.40;36.60;;;;;;5011106;28;20422;-85
2021/11/30 04:22:52;;;;;;;1.00;0.20;;;4.50;36.00;;;;;;5008839;28;20395;-78
2021/11/30 04:25:19;;;;;;;1.75;0.30;;;4.50;36.70;;;;;;5012613;28;20049;-78
2021/11/30 04:27:46;;;;;;;0.28;0.13;;;4.50;35.30;;;;;;5012638;28;20907;-84
2021/11/30 04:30:14;;;;;;;0.60;0.20;;;4.40;36.10;;;;;;5016198;28;20053;-81
2021/11/30 04:32:41;;;;;;;0.80;0.40;;;4.50;35.80;;;;;;5008217;28;20042;-81
2021/11/30 04:35:10;;;;;;;0.40;0.20;;;4.50;35.20;;;;;;5017416;28;20053;-78
2021/11/30 04:37:37;;;;;;;0.55;0.13;;;4.50;35.70;;;;;;5006441;28;20050;-83
2021/11/30 04:40:08;;;;;;;1.05;0.20;;;4.40;36.50;;;;;;5013553;28;20909;-77
2021/11/30 04:42:36;;;;;;;1.52;0.22;;;4.30;37.00;;;;;;5020700;28;20449;-84
2021/11/30 04:45:09;;;;;;;0.50;0.20;;;4.30;36.90;;;;;;5018314;28;20462;-81
2021/11/30 04:47:39;;;;;;;0.68;0.20;;;4.20;37.60;;;;;;5017621;28;20048;-80
2021/11/30 04:50:16;;;;;;;0.30;0.20;;;4.10;39.20;;;;;;5016714;28;20103;-78
2021/11/30 04:52:46;;;;;;;0.20;0.10;;;3.90;38.70;;;;;;5025731;28;20053;-81
2021/11/30 04:55:13;;;;;;;0.35;0.22;;;3.80;38.90;;;;;;5021273;28;20065;-81
2021/11/30 04:57:40;;;;;;;0.40;0.28;;;3.60;39.30;;;;;;5012882;28;20533;-84
2021/11/30 05:00:08;;;;;;;0.73;0.28;;;3.50;39.60;;;;;;5023431;28;20567;-81
2021/11/30 05:02:35;;;;;;;0.95;0.50;;;3.30;40.20;;;;;;5016151;28;20469;-79
2021/11/30 05:05:03;;;;;;;1.50;0.40;;;3.30;40.00;;;;;;5022016;28;20069;-80
2021/11/30 05:07:30;;;;;;;1.00;0.30;;;3.20;39.80;;;;;;5017499;28;20384;-82
2021/11/30 05:09:57;;;;;;;0.50;0.30;;;3.20;39.80;;;;;;5052200;28;20060;-79
2021/11/30 05:12:24;;;;;;;0.60;0.40;;;3.20;41.00;;;;;;5031560;28;20050;-80
2021/11/30 05:14:50;;;;;;;1.00;0.50;;;3.20;41.50;;;;;;5021803;28;20041;-79
2021/11/30 05:17:17;;;;;;;1.02;0.52;;;3.00;43.00;;;;;;5020621;28;20042;-79
2021/11/30 05:19:44;;;;;;;0.40;0.35;;;2.90;44.30;;;;;;5019607;28;20113;-79
2021/11/30 05:22:13;;;;;;;0.75;0.40;;;2.70;44.20;;;;;;5016473;28;20573;-79
2021/11/30 05:24:40;;;;;;;0.60;0.32;;;2.50;44.60;;;;;;5023866;28;20061;-78
2021/11/30 05:27:07;;;;;;;1.20;0.30;;;2.50;42.10;;;;;;5021189;28;20053;-83
2021/11/30 05:29:34;;;;;;;1.13;0.40;;;2.60;42.10;;;;;;5021757;28;20068;-80
2021/11/30 05:32:01;;;;;;;2.35;0.50;;;2.70;41.90;;;;;;5020149;28;20047;-80
2021/11/30 05:34:29;;;;;;;0.82;0.43;;;2.70;40.90;;;;;;5013979;28;20053;-80
2021/11/30 05:36:58;;;;;;;0.35;0.30;;;2.90;41.20;;;;;;5024635;28;20112;-79
2021/11/30 05:39:25;;;;;;;0.82;0.45;;;2.90;40.70;;;;;;5018419;28;20054;-80
2021/11/30 05:41:52;;;;;;;1.35;0.60;;;3.00;41.10;;;;;;5023257;28;20493;-80
2021/11/30 05:44:19;;;;;;;1.08;0.80;;;2.90;41.30;;;;;;5016121;28;20056;-79
2021/11/30 05:46:48;;;;;;;1.40;0.50;;;2.90;41.00;;;;;;5013499;28;20056;-79
2021/11/30 05:49:16;;;;;;;1.65;0.40;;;2.90;41.40;;;;;;5014786;28;20045;-80
2021/11/30 05:51:44;;;;;;;1.35;0.50;;;2.90;41.40;;;;;;5015441;28;20053;-79
2021/11/30 05:54:11;;;;;;;1.67;0.50;;;2.90;41.80;;;;;;5011629;28;20100;-78
2021/11/30 05:56:58;;;;;;;0.82;0.47;;;2.80;41.70;;;;;;5013790;28;20078;-79
2021/11/30 05:59:26;;;;;;;1.08;0.60;;;2.80;41.80;;;;;;5022954;28;20061;-81
2021/11/30 06:01:55;;;;;;;1.40;0.45;;;2.80;42.20;;;;;;5012857;28;20042;-81
2021/11/30 06:04:22;;;;;;;0.60;0.40;;;2.70;42.30;;;;;;5014270;28;20046;-78
2021/11/30 06:06:49;;;;;;;2.25;0.40;;;2.70;42.00;;;;;;5016184;28;20053;-79
2021/11/30 06:09:15;;;;;;;0.82;0.30;;;2.60;42.30;;;;;;5044462;28;20092;-82
2021/11/30 06:11:44;;;;;;;1.23;0.47;;;2.50;43.90;;;;;;5017025;28;20048;-79
2021/11/30 06:14:11;;;;;;;0.60;0.40;;;2.40;44.50;;;;;;5015116;28;20778;-79
2021/11/30 06:16:38;;;;;;;0.50;0.40;;;2.30;45.30;;;;;;5015101;28;20105;-80
2021/11/30 06:19:07;;;;;;;0.93;0.50;;;2.20;46.40;;;;;;5022653;28;20509;-79
2021/11/30 06:21:34;;;;;;;1.25;0.40;;;2.10;46.40;;;;;;5013504;28;20577;-79
2021/11/30 06:24:01;;;;;;;1.15;0.50;;;2.00;46.80;;;;;;5013295;28;20053;-81
2021/11/30 06:26:28;;;;;;;1.23;0.60;;;1.80;47.50;;;;;;5018892;28;20045;-79
2021/11/30 06:28:55;;;;;;;1.73;0.50;;;1.70;47.40;;;;;;5014183;28;20042;-80
2021/11/30 06:31:22;;;;;;;0.85;0.38;;;1.70;47.80;;;;;;5018236;28;20053;-79
2021/11/30 06:33:49;;;;;;;1.17;0.50;;;1.50;49.60;;;;;;5011678;28;20088;-80
2021/11/30 06:36:16;;;;;;;;;;;1.40;50.70;;;;;;5011195;28;20116;-80
2021/11/30 06:38:43;;;;;;;1.52;0.63;;;1.30;49.40;;;;;;5014865;28;20371;-79
2021/11/30 06:41:10;;;;;;;4.20;1.48;;;1.30;48.80;;;;;;5017929;28;20050;-79
2021/11/30 06:43:37;;;;;;;1.35;0.63;;;1.30;48.60;;;;;;5016190;28;20057;-79
2021/11/30 06:46:04;;;;;;;1.25;0.60;;;1.30;49.40;;;;;;5022262;28;20571;-79
2021/11/30 06:48:31;;;;;;;0.70;0.63;;;1.10;50.50;;;;;;5015020;28;20044;-79
2021/11/30 06:50:58;;;;;;;1.73;0.63;;;1.00;50.40;;;;;;5014344;28;20490;-83
2021/11/30 06:53:29;;;;;;;1.55;0.80;;;1.00;51.70;;;;;;5026422;28;20096;-81
2021/11/30 06:55:56;;;;;;;1.10;0.70;;;0.90;51.90;;;;;;5025434;28;20052;-79
2021/11/30 06:58:23;;;;;;;2.70;0.70;;;0.80;52.80;;;;;;4999918;28;20100;-83
2021/11/30 07:00:52;;;;;;;1.52;0.82;;;0.70;52.00;;;;;;5014954;28;20042;-81
2021/11/30 07:03:22;;;;;;;0.95;0.60;;;0.70;53.40;;;;;;5017384;28;20042;-79
2021/11/30 07:05:57;;;;;;;1.75;0.77;;;0.60;53.20;;;;;;5012987;28;20045;-79
2021/11/30 07:08:48;;;;;;;6.60;0.70;;;0.60;53.30;;;;;;5022286;28;20069;-79
2021/11/30 07:14:05;;;;;;;;;;;0.50;54.30;;;;;;5015122;28;19925;-80
2021/11/30 07:16:32;;;;;;;;;;;0.40;55.10;;;;;;5039475;28;19929;-79
2021/11/30 07:18:59;;;;;;;;;;;0.40;56.80;;;;;;5016713;28;20377;-78
2021/11/30 07:21:27;;;;;;;;;;;0.40;56.10;;;;;;5014945;28;19948;-82
2021/11/30 07:23:55;;;;;;;1.23;0.90;;;0.40;55.80;;;;;;5026702;28;20438;-79
2021/11/30 07:26:24;;;;;;;1.42;0.90;;;0.20;58.20;;;;;;5013142;28;20098;-82
2021/11/30 07:28:52;;;;;;;;;;;0.00;59.70;;;;;;5017747;28;20053;-79
2021/11/30 07:31:19;;;;;;;;;;;0.00;59.70;;;;;;5046043;28;19937;-81
2021/11/30 07:33:47;;;;;;;;;;;0.00;60.00;;;;;;5018064;28;19952;-80
2021/11/30 07:36:18;;;;;;;1.67;1.00;;;0.10;60.20;;;;;;5026041;28;19932;-82
2021/11/30 07:38:47;;;;;;;3.63;1.40;;;0.60;59.40;;;;;;5018964;28;20092;-79
2021/11/30 07:41:16;;;;;;;2.47;1.02;;;1.40;57.30;;;;;;5031594;28;20068;-80
2021/11/30 07:43:44;;;;;;;2.30;1.40;;;2.10;55.10;;;;;;5008630;28;20132;-81
2021/11/30 07:46:12;;;;;;;3.65;1.67;;;2.50;53.50;;;;;;5020613;28;20418;-83
2021/11/30 07:48:39;;;;;;;3.05;1.25;;;2.70;53.20;;;;;;5014650;28;20046;-82
2021/11/30 07:51:06;;;;;;;2.70;0.75;;;2.70;53.30;;;;;;5012655;28;20050;-79
2021/11/30 07:53:34;;;;;;;1.15;0.80;;;2.90;53.90;;;;;;5023643;28;20049;-82
2021/11/30 07:56:01;;;;;;;2.13;0.90;;;3.00;54.00;;;;;;5012240;28;20438;-79
2021/11/30 07:58:28;;;;;;;1.88;0.98;;;3.20;54.10;;;;;;5015856;28;20053;-82
2021/11/30 08:00:55;;;;;;;3.60;0.82;;;3.30;53.50;;;;;;5021023;28;20104;-79
2021/11/30 08:03:23;;;;;;;1.83;0.93;;;3.50;53.30;;;;;;5019328;28;20057;-83
2021/11/30 08:05:50;;;;;;;2.83;1.65;;;3.60;52.00;;;;;;5014694;28;20494;-83
2021/11/30 08:08:17;;;;;;;4.07;2.00;;;3.80;52.60;;;;;;5013124;28;20509;-80
2021/11/30 08:10:44;;;;;;;5.97;2.42;;;4.00;52.00;;;;;;5025064;28;20049;-79
2021/11/30 08:13:11;;;;;;;3.25;1.50;;;4.10;51.40;;;;;;5023904;28;20042;-80
2021/11/30 08:15:38;;;;;;;2.15;1.13;;;4.30;51.30;;;;;;5022468;28;20092;-81
2021/11/30 08:18:06;;;;;;;1.50;1.00;;;4.30;52.90;;;;;;5017258;28;20042;-81
2021/11/30 08:20:33;;;;;;;2.50;1.17;;;4.50;53.40;;;;;;5017773;28;20049;-81
2021/11/30 08:23:00;;;;;;;3.40;1.58;;;4.70;52.20;;;;;;5012539;28;20060;-79
2021/11/30 08:25:27;;;;;;;3.35;1.33;;;4.90;49.80;;;;;;5011627;28;20504;-79
2021/11/30 08:27:56;;;;;;;5.20;1.58;;;5.20;50.80;;;;;;5019653;28;20108;-79
2021/11/30 08:30:42;;;;;;;2.40;0.95;;;5.40;48.90;;;;;;5016886;28;20054;-79
2021/11/30 08:33:09;;;;;;;5.25;1.30;;;5.60;48.10;;;;;;5023722;28;20474;-80
2021/11/30 08:35:36;;;;;;;2.45;1.52;;;5.70;47.50;;;;;;5027858;28;20407;-81
2021/11/30 08:38:06;;;;;;;2.55;1.35;;;5.90;47.10;;;;;;5009146;28;20825;-80
2021/11/30 08:40:34;;;;;;;2.83;1.27;;;6.10;46.20;;;;;;5015599;28;20419;-81
2021/11/30 08:43:01;;;;;;;1.73;1.27;;;6.10;47.40;;;;;;5023962;28;20400;-79
2021/11/30 08:45:28;;;;;;;2.35;1.50;;;6.20;48.20;;;;;;5016075;28;20403;-80
2021/11/30 08:47:55;;;;;;;2.00;1.23;;;6.20;48.40;;;;;;5014428;28;20404;-79
2021/11/30 08:50:22;;;;;;;2.85;1.42;;;6.30;47.30;;;;;;5014422;28;20434;-81
2021/11/30 08:52:51;;;;;;;3.17;1.60;;;6.40;46.70;;;;;;5015000;28;20455;-81
2021/11/30 08:55:18;;;;;;;3.70;1.55;;;6.40;45.80;;;;;;5013553;28;20108;-79
2021/11/30 08:57:46;;;;;;;3.63;2.00;;;6.50;47.00;;;;;;5049747;28;20049;-80
2021/11/30 09:00:18;;;;;;;4.18;2.03;;;6.50;47.90;;;;;;5022854;28;20055;-78
2021/11/30 09:02:46;;;;;;;2.67;1.52;;;6.60;47.60;;;;;;5021307;28;20049;-79
2021/11/30 09:05:14;;;;;;;4.78;2.10;;;6.70;46.40;;;;;;5023395;28;20053;-78
2021/11/30 09:07:41;;;;;;;5.22;3.05;;;6.70;46.60;;;;;;5014163;28;20731;-78
2021/11/30 09:10:09;;;;;;;7.13;3.50;;;6.70;45.60;;;;;;5002756;28;20049;-79
2021/11/30 09:12:36;;;;;;;;;;;6.60;45.70;;;;;;5015114;28;20057;-80
2021/11/30 09:15:05;;;;;;;5.10;2.90;;;6.60;45.20;;;;;;5022707;28;19921;-79
2021/11/30 09:17:49;;;;;;;;;;;6.70;46.00;;;;;;5036108;28;20048;-80
2021/11/30 09:20:16;;;;;;;;;;;6.70;44.60;;;;;;5016055;28;19929;-80
2021/11/30 09:22:43;;;;;;;3.85;2.30;;;6.90;43.10;;;;;;5015694;28;19921;-80
2021/11/30 09:25:11;;;;;;;5.00;2.75;;;7.00;41.40;;;;;;5015413;28;20042;-79
2021/11/30 09:27:39;;;;;;;3.35;2.22;;;7.20;40.10;;;;;;5027208;28;20075;-81
2021/11/30 09:30:10;;;;;;;4.55;2.20;;;7.30;40.00;;;;;;5020963;28;20038;-80
2021/11/30 09:32:39;;;;;;;2.88;2.13;;;7.50;40.10;;;;;;5017984;28;20050;-80
2021/11/30 09:35:11;;;;;;;4.07;2.55;;;7.60;41.40;;;;;;5017114;28;20050;-79
2021/11/30 09:37:39;;;;;;;4.47;2.58;;;7.70;43.00;;;;;;5018228;28;20092;-79
2021/11/30 09:40:08;;;;;;;7.55;3.53;;;7.80;43.10;;;;;;5019100;28;20049;-80
2021/11/30 09:42:35;;;;;;;6.22;3.65;;;7.80;42.70;;;;;;5022712;28;20441;-81
2021/11/30 09:45:05;;;;;;;6.07;3.78;;;7.90;43.20;;;;;;5013070;28;20404;-80
2021/11/30 09:47:34;;;;;;;9.83;5.23;;;8.00;43.00;;;;;;5014191;28;20417;-80
2021/11/30 09:50:03;;;;;;;14.80;8.02;;;8.00;43.10;;;;;;5013843;28;20435;-79
2021/11/30 09:52:30;;;;;;;10.90;6.47;;;8.20;44.40;;;;;;5023294;28;20448;-80
2021/11/30 09:54:57;;;;;;;12.68;6.57;;;8.30;44.60;;;;;;5022962;28;20470;-80
2021/11/30 09:57:29;;;;;;;12.10;7.15;;;8.30;45.50;;;;;;5021665;28;20396;-79
2021/11/30 09:59:56;;;;;;;12.07;7.28;;;8.30;44.00;;;;;;5016646;28;20892;-79
2021/11/30 10:02:22;;;;;;;12.10;7.10;;;8.40;44.80;;;;;;5012742;28;20404;-79
2021/11/30 10:04:50;;;;;;;12.82;9.13;;;8.50;43.30;;;;;;5008610;28;20757;-79
2021/11/30 10:07:34;;;;;;;9.30;6.30;;;8.50;42.20;;;;;;5000567;28;20425;-79
2021/11/30 10:10:16;;;;;;;7.10;4.72;;;8.50;42.20;;;;;;5023315;28;20422;-80
2021/11/30 10:12:52;;;;;;;5.70;4.10;;;8.60;42.90;;;;;;5047418;28;20400;-82
2021/11/30 10:15:19;;;;;;;9.00;4.73;;;8.70;41.30;;;;;;5012406;28;20480;-79
2021/11/30 10:17:46;;;;;;;10.68;6.18;;;8.70;38.00;;;;;;5014736;28;20773;-80
2021/11/30 10:20:18;;;;;;;8.27;5.32;;;8.70;38.00;;;;;;5012776;28;20420;-79
2021/11/30 10:22:53;;;;;;;5.75;3.00;;;8.90;36.30;;;;;;5010533;28;20424;-79
2021/11/30 10:25:36;;;;;;;6.50;4.60;;;8.90;34.90;;;;;;5018629;28;20403;-79
2021/11/30 10:28:06;;;;;;;4.45;3.22;;;8.90;34.70;;;;;;5017282;28;20400;-79
2021/11/30 10:30:36;;;;;;;4.90;3.30;;;9.00;32.80;;;;;;5013473;28;20423;-78
2021/11/30 10:33:24;;;;;;;4.25;2.92;;;9.00;33.80;;;;;;5012872;28;20416;-79
2021/11/30 10:35:58;;;;;;;12.88;8.75;;;9.10;34.50;;;;;;5008696;28;20485;-78
2021/11/30 10:38:40;;;;;;;30.80;19.90;;;9.20;35.50;;;;;;5017978;28;20457;-81
2021/11/30 10:41:20;;;;;;;11.27;7.32;;;9.30;35.00;;;;;;5013901;28;20407;-79
2021/11/30 10:44:00;;;;;;;13.27;9.50;;;9.30;36.50;;;;;;5004396;28;20405;-80
2021/11/30 10:46:34;;;;;;;13.02;8.68;;;9.30;36.10;;;;;;5018129;28;20396;-78
2021/11/30 10:49:03;;;;;;;17.08;10.98;;;9.30;34.40;;;;;;5010847;28;20431;-80
2021/11/30 10:51:42;;;;;;;17.83;10.80;;;9.30;34.90;;;;;;5013169;28;20423;-80
2021/11/30 10:54:10;;;;;;;29.23;16.65;;;9.40;35.20;;;;;;5011151;28;20398;-78
2021/11/30 10:56:37;;;;;;;32.80;19.65;;;9.50;35.10;;;;;;5022780;28;20416;-81
2021/11/30 10:59:04;;;;;;;16.90;10.32;;;9.50;35.40;;;;;;5017497;28;20779;-81
2021/11/30 11:01:32;;;;;;;13.18;6.57;;;9.60;35.80;;;;;;5015986;28;20420;-79
2021/11/30 11:04:14;;;;;;;23.73;13.00;;;9.80;36.00;;;;;;5015700;28;20448;-78
2021/11/30 11:07:19;;;;;;;16.38;7.32;;;10.00;35.60;;;;;;5004891;28;20430;-78
2021/11/30 11:09:50;;;;;;;5.65;2.92;;;10.10;33.80;;;;;;5044706;28;20424;-79
2021/11/30 11:12:26;;;;;;;3.70;2.30;;;10.30;34.80;;;;;;5052021;28;20481;-79
2021/11/30 11:14:55;;;;;;;12.93;7.80;;;10.40;34.60;;;;;;5017238;28;20400;-81
2021/11/30 11:17:32;;;;;;;8.93;5.28;;;10.40;32.10;;;;;;5017341;28;20402;-78
2021/11/30 11:20:01;;;;;;;7.30;4.70;;;10.50;33.40;;;;;;5011373;28;20423;-78
2021/11/30 11:22:30;;;;;;;;;;;10.60;32.50;;;;;;5014040;28;20549;-80
2021/11/30 11:24:59;;;;;;;;;;;10.70;31.30;;;;;;5026831;28;19925;-81
2021/11/30 11:27:30;;;;;;;;;;;10.80;32.80;;;;;;5006770;28;20008;-79
2021/11/30 11:29:58;;;;;;;;;;;10.80;30.80;;;;;;5012637;28;19928;-80
2021/11/30 11:32:25;;;;;;;;;;;10.80;31.30;;;;;;5014410;28;19945;-81
2021/11/30 11:34:52;;;;;;;;;;;10.80;30.70;;;;;;5013765;28;19921;-81
2021/11/30 11:37:19;;;;;;;;;;;10.90;31.20;;;;;;5014618;28;19926;-78
2021/11/30 11:39:48;;;;;;;;;;;10.80;30.60;;;;;;5023831;28;20396;-78
2021/11/30 11:42:16;;;;;;;;;;;10.90;30.20;;;;;;5013441;28;19922;-79
2021/11/30 11:44:43;;;;;;;;;;;11.00;30.60;;;;;;5007476;28;20388;-81
2021/11/30 11:47:14;;;;;;;;;;;11.10;29.40;;;;;;5009753;28;19929;-80
2021/11/30 11:49:42;;;;;;;;;;;11.20;30.10;;;;;;5008641;28;19926;-79
2021/11/30 11:52:23;;;;;;;;;;;11.30;30.40;;;;;;5011776;28;19955;-81
2021/11/30 11:54:59;;;;;;;;;;;11.40;30.40;;;;;;5023778;28;19930;-78
2021/11/30 11:57:27;;;;;;;;;;;11.50;28.70;;;;;;5011339;28;19929;-78
2021/11/30 11:59:53;;;;;;;;;;;11.40;29.00;;;;;;5043313;28;19928;-81
2021/11/30 12:02:24;;;;;;;;;;;11.20;27.70;;;;;;5047991;28;19976;-79
2021/11/30 12:04:56;;;;;;;;;;;11.10;28.70;;;;;;5012243;28;19932;-80
2021/11/30 12:07:25;;;;;;;;;;;11.20;30.00;;;;;;5010048;28;19925;-82
2021/11/30 12:10:10;;;;;;;;;;;11.30;29.80;;;;;;5010425;28;19925;-81
2021/11/30 12:12:37;;;;;;;;;;;11.40;29.80;;;;;;5011959;28;19929;-78
2021/11/30 12:15:04;;;;;;;;;;;11.30;27.30;;;;;;5026324;28;19929;-79
2021/11/30 12:17:31;;;;;;;;;;;11.30;27.10;;;;;;5014566;28;19928;-80
2021/11/30 12:19:58;;;;;;;;;;;11.40;26.90;;;;;;5013796;28;19921;-81
2021/11/30 12:22:43;;;;;;;;;;;11.30;28.10;;;;;;5006392;28;20317;-81
2021/11/30 12:25:19;;;;;;;;;;;11.40;28.90;;;;;;5001447;28;19922;-82
2021/11/30 12:27:46;;;;;;;;;;;11.30;24.90;;;;;;4998609;28;19930;-80
2021/11/30 12:30:32;;;;;;;;;;;11.40;25.70;;;;;;5034219;28;19929;-80
2021/11/30 12:33:00;;;;;;;;;;;11.50;25.30;;;;;;5004262;28;19921;-78
2021/11/30 12:35:40;;;;;;;;;;;11.50;24.70;;;;;;5013404;28;19925;-78
2021/11/30 12:38:26;;;;;;;2.17;0.95;;;11.60;25.70;;;;;;5001090;28;19926;-79
2021/11/30 12:40:55;;;;;;;1.95;1.05;;;11.70;26.10;;;;;;5008914;28;20466;-80
2021/11/30 12:43:25;;;;;;;2.95;1.30;;;11.70;26.20;;;;;;5012710;28;20503;-80
2021/11/30 12:46:00;;;;;;;1.43;0.73;;;11.60;26.20;;;;;;5011504;28;20915;-79
2021/11/30 12:48:37;;;;;;;0.80;0.40;;;11.60;26.70;;;;;;5011310;28;20904;-79
2021/11/30 12:51:25;;;;;;;1.10;0.40;;;11.30;24.50;;;;;;5009582;28;20451;-81
2021/11/30 12:53:55;;;;;;;0.63;0.47;;;11.10;25.50;;;;;;5003261;28;20455;-81
2021/11/30 12:56:54;;;;;;;1.93;0.57;;;10.90;26.10;;;;;;5014912;28;20460;-78
2021/11/30 12:59:40;;;;;;;1.10;0.50;;;10.90;26.30;;;;;;5007794;28;20420;-80
2021/11/30 13:02:24;;;;;;;1.00;0.43;;;10.90;26.50;;;;;;5004142;28;20416;-80
2021/11/30 13:04:55;;;;;;;0.80;0.43;;;10.80;26.60;;;;;;5016368;28;20483;-80
2021/11/30 13:07:25;;;;;;;0.60;0.35;;;10.90;26.70;;;;;;5025445;28;20416;-81
2021/11/30 13:09:55;;;;;;;0.63;0.30;;;11.00;26.20;;;;;;5025368;28;20460;-79
2021/11/30 13:12:28;;;;;;;1.30;0.40;;;11.10;26.40;;;;;;5015115;28;20411;-79
2021/11/30 13:14:56;;;;;;;0.50;0.30;;;11.30;26.20;;;;;;5011800;28;20871;-81
2021/11/30 13:17:35;;;;;;;2.20;0.83;;;11.40;25.40;;;;;;5015545;28;20403;-81
2021/11/30 13:20:08;;;;;;;1.67;0.73;;;11.40;25.80;;;;;;5013510;28;20591;-79
2021/11/30 13:22:47;;;;;;;0.95;0.50;;;11.40;25.70;;;;;;5014189;28;20423;-79
2021/11/30 13:25:32;;;;;;;0.70;0.30;;;11.40;25.20;;;;;;5013082;28;20419;-78
2021/11/30 13:28:01;;;;;;;1.10;0.40;;;11.30;25.60;;;;;;5015035;28;20399;-81
2021/11/30 13:30:31;;;;;;;1.10;0.40;;;11.20;25.70;;;;;;5012680;28;20423;-79
2021/11/30 13:33:08;;;;;;;2.28;0.63;;;11.20;25.40;;;;;;5017003;28;20396;-82
2021/11/30 13:35:50;;;;;;;1.40;0.70;;;11.20;25.90;;;;;;5016456;28;20406;-79